Lynn Lake Airport
CYYL : now visible

Airfield :











YOU CAN JOIN US ON...

 
LOGIN :

Register | Disclaimer

   EN    FR    IT 

 









Legend :    VFR   Marginal VFR   IFR   Intensive IFR   Very Intensive IFR
Visi :
Ceiling :
>= 8 km
>= 3000ft
5 to 8 km
1000 to 3000 ft
1500m to 5 km
500 to 1000 ft
800 to 1500m
200 to 500 ft
< 800m
< 200 ft
Symbols :   Thunderstorms  Fog  Heavy snow  Heavy precipitations  Wind > 20 kt






- Airport Elevation : 1170 ft
- IATA code : YYL


CYYL - Lynn Lake

CURRENT METAR :
  • 220508Z AUTO 31009G19KT 9SM -SN BKN018 OVC036 M09/M11 A2941 RMK SLP992

EXPIRED METARs :
  • 220500Z AUTO 30012G21KT 9SM -SN FEW018 OVC036 M09/M11 A2941 RMK SLP991
  • 220448Z AUTO 30012G20KT 9SM FEW018 OVC038 M09/M11 A2940 RMK SLP989
  • 220434Z AUTO 30012G19KT 9SM -SN SCT018 OVC036 M09/M11 A2939 RMK SLP986
  • 220419Z AUTO 30013G23KT 9SM -SN SCT018 OVC036 M09/M11 A2939 RMK SLP984
  • 220400Z AUTO 28013G21KT 9SM -SN FEW018 SCT026 OVC034 M09/M11 A2938 RMK SLP982
  • 220338Z AUTO 29014G20KT 9SM -SN SCT020 OVC026 M09/M11 A2937 RMK SLP978
  • 220300Z AUTO 30012G22KT 9SM -SN OVC018 M09/M10 A2935 RMK SLP971

TAF TAF CYYL
Valid from the 22 at 01:00 until the 22 at 13:00 UTC


220038Z 2201/2213 29008KT 6SM -SN OVC012
TEMPO 2201/2204 2SM -SHSN OVC008
FM220400 31012KT P6SM -SN OVC025
TEMPO 2204/2213 3SM -SN OVC020 RMK FCST BASED ON AUTO OBS. NXT FCST BY 220700Z



MET'MAP, your aeronautical weather chart ! - Copyright ORBIFLY December 2007 - Disclaimer

ORBIFLY MET'MAP TEAM :

Programming & Development : Alexandra Zaïnal
Concept & original design : Baudouin d'Aumeries
Assistance for programming : Marc-Olivier Méhu
Technical & hardware support : Manuel Goepfert

Contact : metmap@orbifly.com




SOURCES & CREDITS :

   NOAA       Earth
Advisory